createdAt,value
2024-02-21T00:01:03.114Z,99616.40
2024-02-21T00:03:51.041Z,99608.20
2024-02-21T00:06:24.252Z,99609.20
2024-02-21T00:08:57.398Z,99607.60
2024-02-21T00:11:30.709Z,99604.00
2024-02-21T00:14:04.035Z,99607.60
2024-02-21T00:16:37.628Z,99605.20
2024-02-21T00:19:10.835Z,99608.40
2024-02-21T00:21:44.024Z,99603.60
2024-02-21T00:24:17.315Z,99604.20
2024-02-21T00:26:50.481Z,99606.80
2024-02-21T00:29:23.651Z,99602.00
2024-02-21T00:31:56.897Z,99601.20
2024-02-21T00:34:30.234Z,99596.60
2024-02-21T00:37:03.595Z,99594.00
2024-02-21T00:39:36.714Z,99592.80
2024-02-21T00:42:10.390Z,99589.60
2024-02-21T00:44:43.489Z,99590.80
2024-02-21T00:47:17.304Z,99584.40
2024-02-21T00:49:50.510Z,99586.40
2024-02-21T00:52:23.747Z,99578.00
2024-02-21T00:54:56.948Z,99580.80
2024-02-21T00:57:30.207Z,99576.80
2024-02-21T01:00:03.370Z,99569.20
2024-02-21T01:02:36.536Z,99566.00
2024-02-21T01:05:11.050Z,99556.20
2024-02-21T01:07:44.306Z,99551.80
2024-02-21T01:10:18.068Z,99551.00
2024-02-21T01:12:51.301Z,99549.00
2024-02-21T01:15:24.709Z,99545.00
2024-02-21T01:17:57.902Z,99539.00
2024-02-21T01:20:31.605Z,99541.20
2024-02-21T01:23:04.901Z,99539.40
2024-02-21T01:25:38.087Z,99537.60
2024-02-21T01:28:11.455Z,99536.40
2024-02-21T01:30:44.599Z,99528.60
2024-02-21T01:33:17.729Z,99527.80
2024-02-21T01:35:51.325Z,99536.20
2024-02-21T01:38:24.536Z,99532.60
2024-02-21T01:40:57.770Z,99528.40
2024-02-21T01:43:31.383Z,99531.40
2024-02-21T01:46:05.757Z,99528.40
2024-02-21T01:48:40.058Z,99529.00
2024-02-21T01:51:14.155Z,99527.60
2024-02-21T01:53:48.603Z,99528.20
2024-02-21T01:56:22.574Z,99527.60
2024-02-21T01:58:57.634Z,99528.40
2024-02-21T02:01:31.782Z,99526.60
2024-02-21T02:04:06.723Z,99522.40
2024-02-21T02:06:40.026Z,99520.60
2024-02-21T02:09:13.570Z,99516.40
2024-02-21T02:11:47.646Z,99515.80
2024-02-21T02:14:20.780Z,99508.00
2024-02-21T02:16:53.958Z,99508.00
2024-02-21T02:19:27.385Z,99512.80
2024-02-21T02:22:11.780Z,99514.00
2024-02-21T02:24:45.566Z,99514.00
2024-02-21T02:27:18.676Z,99506.80
2024-02-21T02:29:52.881Z,99508.40
2024-02-21T02:32:26.189Z,99504.40
2024-02-21T02:34:59.505Z,99502.20
2024-02-21T02:37:33.108Z,99496.20
2024-02-21T02:40:06.989Z,99493.00
2024-02-21T02:42:40.226Z,99495.40
2024-02-21T02:45:14.949Z,99493.00
2024-02-21T02:47:49.512Z,99488.80
2024-02-21T02:50:22.850Z,99487.60
2024-02-21T02:52:56.723Z,99484.60
2024-02-21T02:55:30.407Z,99486.20
2024-02-21T02:58:03.670Z,99487.20
2024-02-21T03:00:37.876Z,99489.00
2024-02-21T03:03:11.236Z,99485.20
2024-02-21T03:05:44.402Z,99481.20
2024-02-21T03:08:17.658Z,99483.00
2024-02-21T03:10:50.917Z,99478.80
2024-02-21T03:13:24.539Z,99476.60
2024-02-21T03:15:57.737Z,99474.80
2024-02-21T03:18:30.962Z,99478.40
2024-02-21T03:21:04.931Z,99473.60
2024-02-21T03:23:38.066Z,99479.60
2024-02-21T03:26:11.250Z,99473.00
2024-02-21T03:28:46.538Z,99471.20
2024-02-21T03:31:20.055Z,99473.00
2024-02-21T03:33:53.236Z,99472.40
2024-02-21T03:36:26.397Z,99473.00
2024-02-21T03:39:00.715Z,99476.60
2024-02-21T03:41:34.219Z,99469.40
2024-02-21T03:44:07.783Z,99475.60
2024-02-21T03:46:41.157Z,99478.20
2024-02-21T03:49:14.531Z,99477.80
2024-02-21T03:51:47.791Z,99480.40
2024-02-21T03:54:20.932Z,99474.80
2024-02-21T03:56:54.113Z,99474.20
2024-02-21T03:59:27.432Z,99473.60
2024-02-21T04:02:01.010Z,99467.20
2024-02-21T04:04:34.200Z,99470.40
2024-02-21T04:07:08.402Z,99470.80
2024-02-21T04:09:41.518Z,99466.60
2024-02-21T04:12:14.826Z,99468.80
2024-02-21T04:14:48.120Z,99465.20
2024-02-21T04:17:21.248Z,99467.40
2024-02-21T04:20:03.733Z,99464.40
2024-02-21T04:22:37.518Z,99464.20
2024-02-21T04:25:12.065Z,99461.00
2024-02-21T04:27:45.320Z,99449.40
2024-02-21T04:30:19.572Z,99450.60
2024-02-21T04:32:52.731Z,99449.80
2024-02-21T04:35:25.994Z,99452.20
2024-02-21T04:37:59.308Z,99451.00
2024-02-21T04:40:32.743Z,99451.40
2024-02-21T04:43:06.328Z,99445.60
2024-02-21T04:45:39.392Z,99449.60
2024-02-21T04:48:12.816Z,99446.40
2024-02-21T04:50:46.186Z,99447.80
2024-02-21T04:53:19.777Z,99440.40
2024-02-21T04:55:53.119Z,99440.20
2024-02-21T04:58:26.993Z,99439.00
2024-02-21T05:01:00.347Z,99436.00
2024-02-21T05:03:33.964Z,99440.20
2024-02-21T05:06:09.014Z,99438.00
2024-02-21T05:08:42.379Z,99443.00
2024-02-21T05:11:15.708Z,99436.40
2024-02-21T05:13:49.075Z,99433.00
2024-02-21T05:16:22.299Z,99432.60
2024-02-21T05:18:55.643Z,99438.00
2024-02-21T05:21:29.350Z,99434.60
2024-02-21T05:24:02.478Z,99432.80
2024-02-21T05:26:35.688Z,99428.20
2024-02-21T05:29:08.940Z,99422.40
2024-02-21T05:32:01.053Z,99424.00
2024-02-21T05:34:34.642Z,99426.60
2024-02-21T05:37:08.229Z,99429.20
2024-02-21T05:39:41.351Z,99424.80
2024-02-21T05:42:14.624Z,99416.20
2024-02-21T05:44:47.955Z,99418.40
2024-02-21T05:47:21.829Z,99422.40
2024-02-21T05:49:55.715Z,99424.60
2024-02-21T05:52:29.034Z,99423.00
2024-02-21T05:55:02.397Z,99423.60
2024-02-21T05:57:35.537Z,99421.00
2024-02-21T06:00:12.172Z,99418.80
2024-02-21T06:02:45.410Z,99422.00
2024-02-21T06:05:18.851Z,99417.20
2024-02-21T06:07:52.228Z,99414.20
2024-02-21T06:10:25.704Z,99416.20
2024-02-21T06:12:58.989Z,99414.00
2024-02-21T06:15:32.696Z,99411.00
2024-02-21T06:18:06.354Z,99407.60
2024-02-21T06:20:41.443Z,99409.40
2024-02-21T06:23:16.562Z,99411.20
2024-02-21T06:25:49.922Z,99407.20
2024-02-21T06:28:23.008Z,99404.20
2024-02-21T06:30:56.270Z,99404.60
2024-02-21T06:33:29.576Z,99402.60
2024-02-21T06:36:02.878Z,99402.60
2024-02-21T06:38:36.275Z,99402.60
2024-02-21T06:41:16.440Z,99402.60
2024-02-21T06:43:50.211Z,99403.00
2024-02-21T06:46:31.689Z,99396.00
2024-02-21T06:49:05.609Z,99403.00
2024-02-21T06:51:38.952Z,99403.40
2024-02-21T06:54:12.241Z,99407.60
2024-02-21T06:56:45.743Z,99406.00
2024-02-21T06:59:18.833Z,99404.60
2024-02-21T07:01:56.812Z,99406.80
2024-02-21T07:04:30.567Z,99400.20
2024-02-21T07:07:04.019Z,99412.00
2024-02-21T07:09:37.537Z,99405.60
2024-02-21T07:12:11.578Z,99409.60
2024-02-21T07:14:44.751Z,99407.80
2024-02-21T07:17:17.955Z,99405.40
2024-02-21T07:19:51.149Z,99400.40
2024-02-21T07:22:24.439Z,99399.60
2024-02-21T07:24:57.633Z,99396.00
2024-02-21T07:27:32.354Z,99396.60
2024-02-21T07:30:06.484Z,99391.20
2024-02-21T07:32:39.671Z,99387.60
2024-02-21T07:35:13.813Z,99387.00
2024-02-21T07:37:47.435Z,99379.80
2024-02-21T07:40:21.687Z,99390.00
2024-02-21T07:42:54.814Z,99388.00
2024-02-21T07:45:28.308Z,99384.00
2024-02-21T07:48:01.539Z,99383.80
2024-02-21T07:50:34.902Z,99389.20
2024-02-21T07:53:08.431Z,99385.20
2024-02-21T07:55:41.751Z,99391.40
2024-02-21T07:58:14.896Z,99382.40
2024-02-21T08:00:48.063Z,99372.00
2024-02-21T08:03:21.936Z,99378.20
2024-02-21T08:05:55.572Z,99370.20
2024-02-21T08:08:28.786Z,99368.00
2024-02-21T08:11:02.020Z,99361.80
2024-02-21T08:13:35.459Z,99367.60
2024-02-21T08:16:09.735Z,99362.40
2024-02-21T08:18:45.161Z,99358.00
2024-02-21T08:21:18.665Z,99347.60
2024-02-21T08:23:52.735Z,99351.40
2024-02-21T08:26:28.748Z,99351.00
2024-02-21T08:29:02.180Z,99338.20
2024-02-21T08:31:35.802Z,99341.80
2024-02-21T08:34:09.803Z,99337.80
2024-02-21T08:36:43.092Z,99338.40
2024-02-21T08:39:18.188Z,99337.60
2024-02-21T08:41:57.261Z,99339.40
2024-02-21T08:44:33.729Z,99336.00
2024-02-21T08:47:09.239Z,99334.40
2024-02-21T08:49:42.640Z,99326.60
2024-02-21T08:52:15.909Z,99330.60
2024-02-21T08:54:49.091Z,99321.00
2024-02-21T08:57:22.582Z,99325.20
2024-02-21T08:59:55.732Z,99325.20
2024-02-21T09:02:28.958Z,99323.60
2024-02-21T09:05:02.368Z,99321.40
2024-02-21T09:07:35.813Z,99321.20
2024-02-21T09:10:11.298Z,99319.80
2024-02-21T09:12:44.967Z,99314.20
2024-02-21T09:15:18.524Z,99317.20
2024-02-21T09:17:51.656Z,99314.80
2024-02-21T09:20:25.063Z,99311.80
2024-02-21T09:22:58.385Z,99317.00
2024-02-21T09:25:32.827Z,99316.40
2024-02-21T09:28:08.043Z,99317.20
2024-02-21T09:30:41.535Z,99311.00
2024-02-21T09:33:20.396Z,99305.80
2024-02-21T09:35:59.789Z,99313.00
2024-02-21T09:38:33.151Z,99310.60
2024-02-21T09:41:19.895Z,99307.60
2024-02-21T09:43:56.478Z,99306.20
2024-02-21T09:46:53.291Z,99301.60
2024-02-21T09:49:37.247Z,99306.80
2024-02-21T09:52:13.165Z,99307.00
2024-02-21T09:54:46.625Z,99308.80
2024-02-21T09:57:21.123Z,99308.00
2024-02-21T09:59:57.832Z,99307.20
2024-02-21T10:02:31.089Z,99302.00
2024-02-21T10:05:06.028Z,99305.40
2024-02-21T10:07:40.818Z,99301.00
2024-02-21T10:10:15.585Z,99292.40
2024-02-21T10:12:55.906Z,99297.20
2024-02-21T10:15:29.812Z,99295.60
2024-02-21T10:18:07.940Z,99296.20
2024-02-21T10:20:41.198Z,99292.80
2024-02-21T10:23:14.608Z,99292.40
2024-02-21T10:25:48.388Z,99292.20
2024-02-21T10:28:24.575Z,99295.00
2024-02-21T10:30:58.370Z,99294.60
2024-02-21T10:33:33.510Z,99295.80
2024-02-21T10:36:15.348Z,99287.60
2024-02-21T10:38:48.495Z,99288.00
2024-02-21T10:41:25.375Z,99282.00
2024-02-21T10:44:01.852Z,99279.60
2024-02-21T10:46:37.980Z,99276.60
2024-02-21T10:49:19.063Z,99276.60
2024-02-21T10:51:54.933Z,99276.40
2024-02-21T10:54:47.196Z,99273.00
2024-02-21T10:57:21.623Z,99271.40
2024-02-21T10:59:57.012Z,99262.60
2024-02-21T11:02:32.904Z,99263.60
2024-02-21T11:05:08.066Z,99260.40
2024-02-21T11:07:43.489Z,99256.80
2024-02-21T11:10:28.995Z,99253.80
2024-02-21T11:13:15.272Z,99251.80
2024-02-21T11:15:49.105Z,99259.40
2024-02-21T11:18:29.945Z,99257.20
2024-02-21T11:21:04.078Z,99259.80
2024-02-21T11:23:37.486Z,99258.40
2024-02-21T11:26:12.656Z,99257.40
2024-02-21T11:28:46.226Z,99255.00
2024-02-21T11:31:20.238Z,99257.40
2024-02-21T11:33:55.414Z,99253.80
2024-02-21T11:36:32.580Z,99250.80
2024-02-21T11:39:10.784Z,99243.20
2024-02-21T11:41:44.482Z,99243.20
2024-02-21T11:44:17.742Z,99239.60
2024-02-21T11:46:53.070Z,99240.40
2024-02-21T11:49:28.868Z,99234.20
2024-02-21T11:52:06.842Z,99234.20
2024-02-21T11:54:40.028Z,99230.80
2024-02-21T11:57:13.900Z,99230.80
2024-02-21T11:59:49.676Z,99220.60
2024-02-21T12:02:23.176Z,99231.20
2024-02-21T12:04:57.021Z,99229.60
2024-02-21T12:07:30.777Z,99229.20
2024-02-21T12:10:08.816Z,99230.40
2024-02-21T12:12:42.280Z,99227.20
2024-02-21T12:15:15.652Z,99221.40
2024-02-21T12:17:49.037Z,99216.00
2024-02-21T12:20:22.733Z,99206.40
2024-02-21T12:22:56.318Z,99208.00
2024-02-21T12:25:30.827Z,99201.00
2024-02-21T12:28:05.250Z,99201.80
2024-02-21T12:30:41.023Z,99198.60
2024-02-21T12:33:15.321Z,99189.60
2024-02-21T12:35:50.782Z,99192.20
2024-02-21T12:38:24.125Z,99187.60
2024-02-21T12:40:58.377Z,99183.20
2024-02-21T12:43:31.675Z,99184.20
2024-02-21T12:46:05.109Z,99182.00
2024-02-21T12:48:38.458Z,99177.80
2024-02-21T12:51:12.354Z,99166.20
2024-02-21T12:53:45.778Z,99166.60
2024-02-21T12:56:19.025Z,99167.80
2024-02-21T12:58:53.182Z,99156.40
2024-02-21T13:01:27.324Z,99159.60
2024-02-21T13:04:02.106Z,99153.40
2024-02-21T13:06:36.577Z,99154.80
2024-02-21T13:09:12.214Z,99154.80
2024-02-21T13:11:47.361Z,99151.40
2024-02-21T13:14:21.114Z,99150.20
2024-02-21T13:16:54.739Z,99147.40
2024-02-21T13:19:28.387Z,99145.40
2024-02-21T13:22:01.679Z,99144.40
2024-02-21T13:24:35.164Z,99146.00
2024-02-21T13:27:08.483Z,99138.80
2024-02-21T13:29:41.701Z,99139.40
2024-02-21T13:32:16.506Z,99140.80
2024-02-21T13:34:50.067Z,99134.40
2024-02-21T13:37:23.485Z,99129.80
2024-02-21T13:39:57.069Z,99121.00
2024-02-21T13:42:31.114Z,99109.40
2024-02-21T13:45:06.534Z,99105.60
2024-02-21T13:47:40.283Z,99095.80
2024-02-21T13:50:15.530Z,99094.20
2024-02-21T13:52:48.936Z,99087.80
2024-02-21T13:55:23.469Z,99086.20
2024-02-21T13:57:56.690Z,99078.20
2024-02-21T14:00:30.227Z,99072.80
2024-02-21T14:03:03.521Z,99072.60
2024-02-21T14:05:38.801Z,99067.20
2024-02-21T14:08:13.561Z,99065.80
2024-02-21T14:10:46.869Z,99063.60
2024-02-21T14:13:21.873Z,99052.20
2024-02-21T14:15:55.485Z,99048.40
2024-02-21T14:18:31.244Z,99046.60
2024-02-21T14:21:05.203Z,99036.20
2024-02-21T14:23:39.019Z,99044.00
2024-02-21T14:26:13.374Z,99030.40
2024-02-21T14:28:47.014Z,99029.60
2024-02-21T14:31:21.337Z,99032.40
2024-02-21T14:33:54.930Z,99034.40
2024-02-21T14:36:28.403Z,99030.00
2024-02-21T14:39:01.632Z,99036.80
2024-02-21T14:41:37.495Z,99034.40
2024-02-21T14:44:11.540Z,99033.00
2024-02-21T14:46:46.466Z,99029.20
2024-02-21T14:49:21.914Z,99025.80
2024-02-21T14:51:55.336Z,99020.80
2024-02-21T14:54:28.557Z,99022.20
2024-02-21T14:57:02.133Z,99023.80
2024-02-21T14:59:35.644Z,99027.80
2024-02-21T15:02:10.186Z,99024.40
2024-02-21T15:04:44.222Z,99024.60
2024-02-21T15:07:18.334Z,99029.00
2024-02-21T15:09:51.778Z,99021.00
2024-02-21T15:12:25.288Z,99019.60
2024-02-21T15:14:58.599Z,99011.80
2024-02-21T15:17:31.810Z,99006.80
2024-02-21T15:20:08.804Z,98994.20
2024-02-21T15:22:42.158Z,98987.80
2024-02-21T15:25:16.613Z,98979.60
2024-02-21T15:27:51.012Z,98982.80
2024-02-21T15:30:24.159Z,98979.00
2024-02-21T15:32:59.578Z,98976.60
2024-02-21T15:35:33.024Z,98977.00
2024-02-21T15:38:08.983Z,98977.60
2024-02-21T15:40:42.207Z,98975.00
2024-02-21T15:43:15.399Z,98970.20
2024-02-21T15:45:48.693Z,98967.80
2024-02-21T15:48:26.052Z,98966.40
2024-02-21T15:51:01.304Z,98974.60
2024-02-21T15:53:35.074Z,98975.80
2024-02-21T15:56:08.975Z,98983.40
2024-02-21T15:58:43.052Z,98979.00
2024-02-21T16:01:16.511Z,98982.80
2024-02-21T16:03:49.708Z,98985.40
2024-02-21T16:06:22.986Z,98986.20
2024-02-21T16:09:26.439Z,98983.20
2024-02-21T16:11:59.744Z,98984.20
2024-02-21T16:14:33.022Z,98978.40
2024-02-21T16:17:06.973Z,98979.80
2024-02-21T16:19:40.257Z,98979.80
2024-02-21T16:22:14.675Z,98978.40
2024-02-21T16:24:53.102Z,98978.20
2024-02-21T16:27:26.543Z,98978.20
2024-02-21T16:29:59.699Z,98982.00
2024-02-21T16:32:33.252Z,98973.60
2024-02-21T16:35:07.161Z,98972.80
2024-02-21T16:37:40.290Z,98968.20
2024-02-21T16:40:15.800Z,98967.60
2024-02-21T16:42:50.660Z,98963.40
2024-02-21T16:45:23.839Z,98967.00
2024-02-21T16:47:57.150Z,98964.20
2024-02-21T16:50:31.987Z,98967.20
2024-02-21T16:53:05.653Z,98967.20
2024-02-21T16:55:39.118Z,98960.80
2024-02-21T16:58:14.152Z,98966.40
2024-02-21T17:00:47.999Z,98958.80
2024-02-21T17:03:22.508Z,98954.80
2024-02-21T17:06:00.709Z,98956.20
2024-02-21T17:08:41.832Z,98956.40
2024-02-21T17:11:15.324Z,98955.60
2024-02-21T17:13:48.790Z,98952.80
2024-02-21T17:16:22.170Z,98961.60
2024-02-21T17:18:55.584Z,98968.80
2024-02-21T17:21:30.127Z,98960.80
2024-02-21T17:24:03.848Z,98958.20
2024-02-21T17:26:37.006Z,98948.80
2024-02-21T17:29:10.268Z,98950.20
2024-02-21T17:31:44.512Z,98949.40
2024-02-21T17:34:17.866Z,98945.60
2024-02-21T17:36:51.236Z,98941.00
2024-02-21T17:39:24.417Z,98939.00
2024-02-21T17:41:58.071Z,98933.80
2024-02-21T17:44:31.537Z,98926.20
2024-02-21T17:47:05.466Z,98925.40
2024-02-21T17:49:38.897Z,98923.00
2024-02-21T17:52:12.644Z,98927.00
2024-02-21T17:54:48.353Z,98927.80
2024-02-21T17:57:21.935Z,98918.60
2024-02-21T17:59:55.186Z,98921.80
2024-02-21T18:02:28.313Z,98913.20
2024-02-21T18:05:01.818Z,98912.60
2024-02-21T18:07:35.773Z,98903.00
2024-02-21T18:10:10.760Z,98903.60
2024-02-21T18:12:44.265Z,98898.40
2024-02-21T18:15:17.690Z,98895.80
2024-02-21T18:17:50.912Z,98894.40
2024-02-21T18:20:25.690Z,98894.20
2024-02-21T18:22:59.220Z,98881.60
2024-02-21T18:25:32.589Z,98878.60
2024-02-21T18:28:06.269Z,98875.20
2024-02-21T18:30:39.519Z,98875.40
2024-02-21T18:33:12.773Z,98877.80
2024-02-21T18:35:46.368Z,98871.40
2024-02-21T18:38:19.756Z,98870.60
2024-02-21T18:40:52.973Z,98867.20
2024-02-21T18:43:26.200Z,98862.40
2024-02-21T18:45:59.375Z,98859.60
2024-02-21T18:48:33.074Z,98857.20
2024-02-21T18:51:06.788Z,98860.20
2024-02-21T18:53:40.245Z,98858.60
2024-02-21T18:56:13.895Z,98858.80
2024-02-21T18:58:49.494Z,98856.40
2024-02-21T19:01:22.888Z,98858.20
2024-02-21T19:03:56.231Z,98855.60
2024-02-21T19:06:29.650Z,98855.40
2024-02-21T19:09:04.510Z,98847.40
2024-02-21T19:11:37.940Z,98840.00
2024-02-21T19:14:11.494Z,98843.60
2024-02-21T19:16:44.826Z,98840.60
2024-02-21T19:19:18.681Z,98836.40
2024-02-21T19:21:51.957Z,98833.60
2024-02-21T19:24:25.670Z,98836.00
2024-02-21T19:26:58.912Z,98832.40
2024-02-21T19:29:32.528Z,98827.00
2024-02-21T19:32:06.038Z,98828.00
2024-02-21T19:34:42.443Z,98826.00
2024-02-21T19:37:16.370Z,98825.20
2024-02-21T19:39:49.873Z,98825.20
2024-02-21T19:42:23.050Z,98821.40
2024-02-21T19:44:56.150Z,98825.00
2024-02-21T19:47:29.504Z,98820.60
2024-02-21T19:50:02.873Z,98823.40
2024-02-21T19:52:36.191Z,98822.60
2024-02-21T19:55:11.074Z,98823.20
2024-02-21T19:57:44.235Z,98817.00
2024-02-21T20:00:20.842Z,98815.40
2024-02-21T20:02:54.481Z,98811.40
2024-02-21T20:05:27.873Z,98812.00
2024-02-21T20:08:02.232Z,98817.60
2024-02-21T20:10:35.547Z,98800.60
2024-02-21T20:13:09.140Z,98800.00
2024-02-21T20:15:43.671Z,98797.80
2024-02-21T20:18:17.189Z,98784.80
2024-02-21T20:20:50.708Z,98776.60
2024-02-21T20:23:23.952Z,98773.80
2024-02-21T20:25:57.507Z,98772.40
2024-02-21T20:28:30.959Z,98771.60
2024-02-21T20:31:04.474Z,98773.00
2024-02-21T20:33:37.882Z,98774.80
2024-02-21T20:36:12.348Z,98780.00
2024-02-21T20:38:45.656Z,98775.80
2024-02-21T20:41:22.760Z,98777.00
2024-02-21T20:43:56.013Z,98774.60
2024-02-21T20:46:29.615Z,98773.80
2024-02-21T20:49:02.828Z,98767.00
2024-02-21T20:51:35.989Z,98763.60
2024-02-21T20:54:09.222Z,98759.40
2024-02-21T20:56:42.866Z,98757.60
2024-02-21T20:59:17.927Z,98756.00
2024-02-21T21:01:58.622Z,98748.60
2024-02-21T21:04:36.924Z,98746.00
2024-02-21T21:07:10.699Z,98743.80
2024-02-21T21:09:44.509Z,98739.00
2024-02-21T21:12:17.701Z,98744.20
2024-02-21T21:14:51.120Z,98731.40
2024-02-21T21:17:24.423Z,98726.20
2024-02-21T21:19:58.034Z,98723.00
2024-02-21T21:22:32.282Z,98716.40
2024-02-21T21:25:06.419Z,98711.40
2024-02-21T21:27:44.043Z,98706.00
2024-02-21T21:30:18.448Z,98698.60
2024-02-21T21:32:51.676Z,98696.00
2024-02-21T21:35:27.169Z,98690.00
2024-02-21T21:38:01.150Z,98687.40
2024-02-21T21:40:34.512Z,98686.80
2024-02-21T21:43:07.864Z,98679.20
2024-02-21T21:45:41.031Z,98676.60
2024-02-21T21:48:14.282Z,98675.40
2024-02-21T21:50:47.615Z,98671.80
2024-02-21T21:53:20.812Z,98669.60
2024-02-21T21:55:54.065Z,98655.80
2024-02-21T21:58:27.363Z,98652.60
2024-02-21T22:01:00.748Z,98651.20
2024-02-21T22:03:34.017Z,98651.20
2024-02-21T22:06:07.855Z,98643.40
2024-02-21T22:08:45.464Z,98639.20
2024-02-21T22:11:20.540Z,98633.40
2024-02-21T22:13:54.540Z,98633.00
2024-02-21T22:16:27.914Z,98630.20
2024-02-21T22:19:01.242Z,98630.80
2024-02-21T22:21:35.398Z,98626.60
2024-02-21T22:24:09.955Z,98630.00
2024-02-21T22:26:43.273Z,98621.40
2024-02-21T22:29:16.770Z,98620.00
2024-02-21T22:31:50.264Z,98614.80
2024-02-21T22:34:23.483Z,98613.60
2024-02-21T22:36:56.773Z,98609.80
2024-02-21T22:39:30.520Z,98607.80
2024-02-21T22:42:03.713Z,98604.00
2024-02-21T22:44:41.920Z,98608.20
2024-02-21T22:47:15.857Z,98597.20
2024-02-21T22:49:49.136Z,98601.40
2024-02-21T22:52:22.279Z,98601.20
2024-02-21T22:54:55.418Z,98596.00
2024-02-21T22:57:28.575Z,98594.20
2024-02-21T23:00:02.449Z,98592.40
2024-02-21T23:02:35.819Z,98585.20
2024-02-21T23:05:10.419Z,98582.80
2024-02-21T23:07:43.712Z,98575.60
2024-02-21T23:10:17.724Z,98570.80
2024-02-21T23:12:50.813Z,98571.20
2024-02-21T23:15:23.946Z,98571.00
2024-02-21T23:17:57.250Z,98563.00
2024-02-21T23:20:31.367Z,98561.40
2024-02-21T23:23:04.801Z,98562.40
2024-02-21T23:25:37.962Z,98559.00
2024-02-21T23:28:11.245Z,98558.20
2024-02-21T23:30:44.512Z,98552.40
2024-02-21T23:33:17.784Z,98545.40
2024-02-21T23:35:51.265Z,98547.00
2024-02-21T23:38:24.549Z,98543.60
2024-02-21T23:40:57.912Z,98532.00
2024-02-21T23:43:31.151Z,98532.20
2024-02-21T23:46:04.502Z,98528.00
2024-02-21T23:48:38.317Z,98528.20
2024-02-21T23:51:11.964Z,98518.60
2024-02-21T23:53:45.280Z,98512.20
2024-02-21T23:56:18.786Z,98512.60
2024-02-21T23:58:52.160Z,98502.20
